TRA43X EHAM-LEAL
Flight info
| Callsign | TRA43X |
|---|---|
| Flight time | N/A |
| Altitude | 33000 |
| Route | WOODY N872 DENOX/N0460F350 N872 CIV DCT KOVIN DCT DUCRA UM728 RESMI UN857 DISAK DCT DIRMO DCT GUERE DCT EVPOK DCT AGN DCT ANETO DCT POSSY DCT XIMPE DCT RIMES DCT SAURA DCT TATOS DCT PLANA DCT VLC |
| Aircraft | B738/M-SDE2E3FGHIRWXY/LB1 |
Departure
| Time | 2026-05-04 12:20 |
|---|---|
| Airport | Amsterdam Airport Schiphol (EHAM) |
Arrival
| Time | N/A |
|---|---|
| Airport | Alicante-Elche Miguel Hernández Airport (LEAL) |
| Time | Latitude | Longitude | Altitude | Speed | Heading |
|---|---|---|---|---|---|
| 2026-05-04 11:51 | 52.30790 | 4.77230 | -1 ft | 0 kts | 183° |
| 2026-05-04 12:09 | 52.30796 | 4.77231 | -1 ft | 2 kts | 183° |
| 2026-05-04 12:10 | 52.30810 | 4.77232 | -1 ft | 2 kts | 183° |
| 2026-05-04 12:10 | 52.30821 | 4.77233 | -1 ft | 1 kts | 184° |
| 2026-05-04 12:10 | 52.30835 | 4.77229 | -1 ft | 2 kts | 143° |
| 2026-05-04 12:10 | 52.30844 | 4.77209 | -1 ft | 2 kts | 105° |
| 2026-05-04 12:11 | 52.30845 | 4.77198 | -1 ft | 1 kts | 87° |
| 2026-05-04 12:11 | 52.30845 | 4.77191 | -1 ft | 0 kts | 92° |
| 2026-05-04 12:13 | 52.30844 | 4.77211 | -1 ft | 7 kts | 92° |
| 2026-05-04 12:14 | 52.30558 | 4.77553 | -1 ft | 6 kts | 152° |
| 2026-05-04 12:15 | 52.30528 | 4.77579 | -1 ft | 4 kts | 152° |
| 2026-05-04 12:15 | 52.30516 | 4.77588 | -1 ft | 0 kts | 152° |
| 2026-05-04 12:17 | 52.30516 | 4.77589 | -1 ft | 0 kts | 152° |
| 2026-05-04 12:17 | 52.30473 | 4.77625 | -1 ft | 15 kts | 152° |
| 2026-05-04 12:17 | 52.30411 | 4.77627 | -1 ft | 8 kts | 229° |
| 2026-05-04 12:18 | 52.30405 | 4.77613 | -1 ft | 0 kts | 236° |
| 2026-05-04 12:19 | 52.30383 | 4.77558 | -1 ft | 15 kts | 237° |
| 2026-05-04 12:19 | 52.30201 | 4.77081 | -1 ft | 81 kts | 238° |
| 2026-05-04 12:19 | 52.29794 | 4.76025 | -1 ft | 136 kts | 239° |
| 2026-05-04 12:19 | 52.29209 | 4.74508 | 81 ft | 171 kts | 238° |
| 2026-05-04 12:20 | 52.28575 | 4.72861 | 607 ft | 174 kts | 239° |
| 2026-05-04 12:20 | 52.27931 | 4.71169 | 1125 ft | 181 kts | 239° |
| 2026-05-04 12:20 | 52.27276 | 4.69403 | 1666 ft | 184 kts | 240° |
| 2026-05-04 12:20 | 52.26415 | 4.67755 | 1880 ft | 202 kts | 211° |
| 2026-05-04 12:21 | 52.25026 | 4.67294 | 2156 ft | 212 kts | 168° |
| 2026-05-04 12:21 | 52.23729 | 4.68404 | 2416 ft | 222 kts | 135° |
| 2026-05-04 12:21 | 52.22686 | 4.70361 | 2769 ft | 233 kts | 132° |
| 2026-05-04 12:21 | 52.21368 | 4.71925 | 3311 ft | 239 kts | 155° |
| 2026-05-04 12:22 | 52.19836 | 4.72929 | 4012 ft | 237 kts | 159° |
| 2026-05-04 12:22 | 52.18313 | 4.73919 | 4599 ft | 239 kts | 157° |
| 2026-05-04 12:22 | 52.16748 | 4.74843 | 5179 ft | 242 kts | 164° |
| 2026-05-04 12:22 | 52.15077 | 4.75554 | 5536 ft | 255 kts | 167° |
| 2026-05-04 12:23 | 52.13308 | 4.76213 | 5900 ft | 268 kts | 168° |
| 2026-05-04 12:23 | 52.11465 | 4.76896 | 6439 ft | 273 kts | 168° |
| 2026-05-04 12:23 | 52.09613 | 4.77598 | 7034 ft | 277 kts | 168° |
| 2026-05-04 12:23 | 52.07733 | 4.78321 | 7659 ft | 279 kts | 168° |
| 2026-05-04 12:24 | 52.05842 | 4.79053 | 8298 ft | 282 kts | 168° |
| 2026-05-04 12:24 | 52.03937 | 4.79791 | 8944 ft | 284 kts | 168° |
| 2026-05-04 12:24 | 52.01990 | 4.80548 | 9573 ft | 287 kts | 168° |
| 2026-05-04 12:24 | 52.00034 | 4.81201 | 10172 ft | 290 kts | 174° |
| 2026-05-04 12:25 | 51.98002 | 4.81121 | 10493 ft | 302 kts | 195° |
| 2026-05-04 12:25 | 51.96005 | 4.79860 | 10881 ft | 313 kts | 207° |
| 2026-05-04 12:25 | 51.94010 | 4.78205 | 11182 ft | 328 kts | 208° |
| 2026-05-04 12:25 | 51.91942 | 4.76468 | 11492 ft | 343 kts | 208° |
| 2026-05-04 12:26 | 51.89782 | 4.74692 | 11866 ft | 356 kts | 207° |
| 2026-05-04 12:26 | 51.87533 | 4.72886 | 12419 ft | 363 kts | 207° |
| 2026-05-04 12:26 | 51.85234 | 4.71073 | 13095 ft | 366 kts | 207° |
| 2026-05-04 12:26 | 51.82964 | 4.69301 | 13748 ft | 370 kts | 207° |
| 2026-05-04 12:27 | 51.80615 | 4.67475 | 14464 ft | 373 kts | 206° |
| 2026-05-04 12:27 | 51.78274 | 4.65658 | 15147 ft | 375 kts | 206° |
| 2026-05-04 12:27 | 51.75928 | 4.63839 | 15822 ft | 379 kts | 206° |
| 2026-05-04 12:27 | 51.73552 | 4.62002 | 16503 ft | 382 kts | 206° |
| 2026-05-04 12:28 | 51.71143 | 4.60147 | 17145 ft | 385 kts | 206° |
| 2026-05-04 12:28 | 51.68741 | 4.58288 | 17752 ft | 389 kts | 207° |
| 2026-05-04 12:28 | 51.66295 | 4.56392 | 18398 ft | 391 kts | 207° |
| 2026-05-04 12:28 | 51.63848 | 4.54502 | 19016 ft | 395 kts | 207° |
| 2026-05-04 12:29 | 51.61391 | 4.52613 | 19712 ft | 395 kts | 207° |
| 2026-05-04 12:29 | 51.58890 | 4.50689 | 20276 ft | 398 kts | 207° |
| 2026-05-04 12:29 | 51.56388 | 4.48763 | 20902 ft | 400 kts | 207° |
| 2026-05-04 12:29 | 51.53901 | 4.46853 | 21547 ft | 400 kts | 207° |
| 2026-05-04 12:30 | 51.51388 | 4.44926 | 22086 ft | 403 kts | 207° |
| 2026-05-04 12:30 | 51.48843 | 4.42975 | 22644 ft | 405 kts | 207° |
| 2026-05-04 12:30 | 51.46300 | 4.41024 | 23203 ft | 407 kts | 207° |
| 2026-05-04 12:30 | 51.43775 | 4.39090 | 23722 ft | 409 kts | 207° |
| 2026-05-04 12:31 | 51.41170 | 4.37099 | 24287 ft | 411 kts | 207° |
| 2026-05-04 12:31 | 51.38612 | 4.35147 | 24795 ft | 413 kts | 207° |
| 2026-05-04 12:31 | 51.35991 | 4.33153 | 25389 ft | 414 kts | 206° |
| 2026-05-04 12:31 | 51.33398 | 4.31184 | 25782 ft | 418 kts | 206° |
| 2026-05-04 12:32 | 51.30775 | 4.29195 | 26358 ft | 418 kts | 206° |
| 2026-05-04 12:32 | 51.25493 | 4.25190 | 27243 ft | 424 kts | 205° |
| 2026-05-04 12:32 | 51.22809 | 4.23156 | 27653 ft | 427 kts | 205° |
| 2026-05-04 12:33 | 51.20206 | 4.21189 | 28064 ft | 429 kts | 205° |
| 2026-05-04 12:33 | 51.17500 | 4.19146 | 28540 ft | 430 kts | 205° |
| 2026-05-04 12:33 | 51.14770 | 4.17244 | 28921 ft | 432 kts | 201° |
| 2026-05-04 12:33 | 51.11954 | 4.15561 | 29315 ft | 434 kts | 199° |
| 2026-05-04 12:34 | 51.09080 | 4.13994 | 29850 ft | 433 kts | 198° |
| 2026-05-04 12:34 | 51.06249 | 4.12506 | 30275 ft | 433 kts | 198° |
| 2026-05-04 12:34 | 51.03427 | 4.11032 | 30721 ft | 432 kts | 198° |
| 2026-05-04 12:34 | 51.00602 | 4.09549 | 31305 ft | 427 kts | 198° |
| 2026-05-04 12:35 | 50.97809 | 4.08071 | 31966 ft | 420 kts | 199° |
| 2026-05-04 12:35 | 50.95078 | 4.06613 | 32583 ft | 414 kts | 199° |
| 2026-05-04 12:35 | 50.94134 | 4.06108 | 32739 ft | 413 kts | 199° |